Time;durP1;ratioP1;P1;durP2;ratioP2;P2;SDS_P1;SDS_P2;PMS_P1;PMS_P2;Temp;Humidity;BMP_temperature;BMP_pressure;BME280_temperature;BME280_humidity;BME280_pressure;Samples;Min_cycle;Max_cycle;Signal;HPM_P1;HPM_P2
2024/01/27 00:01:54;;;;;;;14.77;2.33;;;;;;;;;;5093371;28;20032;-29
2024/01/27 00:04:21;;;;;;;14.73;2.20;;;;;;;;;;5094800;28;20036;-29
2024/01/27 00:06:48;;;;;;;11.77;2.53;;;;;;;;;;5094659;28;20023;-28
2024/01/27 00:09:15;;;;;;;14.35;2.50;;;;;;;;;;5094610;28;20103;-28
2024/01/27 00:11:42;;;;;;;14.23;2.42;;;;;;;;;;5090655;28;20028;-29
2024/01/27 00:14:09;;;;;;;12.20;2.22;;;;;;;;;;5094396;28;20068;-28
2024/01/27 00:16:36;;;;;;;9.25;2.17;;;;;;;;;;5094547;28;20035;-31
2024/01/27 00:19:02;;;;;;;13.57;2.50;;;;;;;;;;5094463;28;20028;-29
2024/01/27 00:21:29;;;;;;;9.90;2.00;;;;;;;;;;5093885;28;20386;-26
2024/01/27 00:24:00;;;;;;;12.23;2.47;;;;;;;;;;5090281;28;20043;-30
2024/01/27 00:26:28;;;;;;;9.82;2.05;;;;;;;;;;5094298;28;20107;-29
2024/01/27 00:28:55;;;;;;;9.48;2.03;;;;;;;;;;5094278;28;20024;-27
2024/01/27 00:31:22;;;;;;;13.25;2.80;;;;;;;;;;5094028;28;20048;-31
2024/01/27 00:33:48;;;;;;;12.60;1.98;;;;;;;;;;5093151;28;20050;-27
2024/01/27 00:36:16;;;;;;;13.35;2.00;;;;;;;;;;5090785;28;20031;-28
2024/01/27 00:38:43;;;;;;;11.80;1.85;;;;;;;;;;5094111;28;20076;-31
2024/01/27 00:41:12;;;;;;;18.30;2.47;;;;;;;;;;5093926;28;20027;-28
2024/01/27 00:43:39;;;;;;;11.32;2.05;;;;;;;;;;5093975;28;20036;-29
2024/01/27 00:46:06;;;;;;;15.88;2.35;;;;;;;;;;5092226;28;20027;-27
2024/01/27 00:48:33;;;;;;;10.45;2.08;;;;;;;;;;5091543;28;20028;-28
2024/01/27 00:51:00;;;;;;;9.68;2.38;;;;;;;;;;5093585;28;20039;-27
2024/01/27 00:53:27;;;;;;;11.40;2.10;;;;;;;;;;5092881;28;20036;-30
2024/01/27 00:55:54;;;;;;;8.63;2.10;;;;;;;;;;5093761;28;20426;-28
2024/01/27 00:58:21;;;;;;;14.75;3.17;;;;;;;;;;5091294;28;20043;-27
2024/01/27 01:00:48;;;;;;;15.35;2.70;;;;;;;;;;5091584;28;20028;-28
2024/01/27 01:03:15;;;;;;;11.77;2.20;;;;;;;;;;5093629;28;20093;-27
2024/01/27 01:05:42;;;;;;;11.45;2.63;;;;;;;;;;5093688;28;20516;-27
2024/01/27 01:08:09;;;;;;;13.70;2.40;;;;;;;;;;5093648;28;20027;-30
2024/01/27 01:10:35;;;;;;;11.38;2.40;;;;;;;;;;5090381;28;20043;-28
2024/01/27 01:13:02;;;;;;;12.57;2.40;;;;;;;;;;5091929;28;20040;-30
2024/01/27 01:15:30;;;;;;;9.20;2.10;;;;;;;;;;5093317;28;20031;-28
2024/01/27 01:17:56;;;;;;;12.23;2.17;;;;;;;;;;5093437;28;20100;-28
2024/01/27 01:20:25;;;;;;;14.90;2.15;;;;;;;;;;5093144;28;20024;-28
2024/01/27 01:22:52;;;;;;;10.27;2.58;;;;;;;;;;5089133;28;20051;-26
2024/01/27 01:25:19;;;;;;;9.88;2.67;;;;;;;;;;5092519;28;20031;-28
2024/01/27 01:27:49;;;;;;;12.15;2.22;;;;;;;;;;5093119;28;20359;-29
2024/01/27 01:30:16;;;;;;;12.18;2.40;;;;;;;;;;5092816;28;20036;-28
2024/01/27 01:32:43;;;;;;;9.35;2.17;;;;;;;;;;5092647;28;20043;-28
2024/01/27 01:35:14;;;;;;;14.35;2.47;;;;;;;;;;5088509;28;20432;-28
2024/01/27 01:37:41;;;;;;;12.57;2.45;;;;;;;;;;5093041;28;20035;-28
2024/01/27 01:40:08;;;;;;;10.02;3.00;;;;;;;;;;5092818;28;20028;-28
2024/01/27 01:42:35;;;;;;;12.70;2.80;;;;;;;;;;5092798;28;20020;-28
2024/01/27 01:45:02;;;;;;;8.95;2.78;;;;;;;;;;5092820;28;20028;-28
2024/01/27 01:47:29;;;;;;;8.48;2.95;;;;;;;;;;5088390;28;20035;-28
2024/01/27 01:49:56;;;;;;;10.50;2.92;;;;;;;;;;5092811;28;20028;-28
2024/01/27 01:52:23;;;;;;;12.88;3.00;;;;;;;;;;5092571;28;20097;-28
2024/01/27 01:54:51;;;;;;;15.13;3.33;;;;;;;;;;5092532;28;20016;-28
2024/01/27 01:57:18;;;;;;;12.05;2.38;;;;;;;;;;5091782;28;20543;-27
2024/01/27 01:59:45;;;;;;;12.18;2.70;;;;;;;;;;5088838;28;20107;-29
2024/01/27 02:02:13;;;;;;;10.27;2.65;;;;;;;;;;5092464;28;20094;-28
2024/01/27 02:04:41;;;;;;;9.23;2.70;;;;;;;;;;5092421;28;20474;-27
2024/01/27 02:07:08;;;;;;;12.05;3.00;;;;;;;;;;5092524;28;20020;-28
2024/01/27 02:09:35;;;;;;;11.93;3.13;;;;;;;;;;5090853;28;20512;-28
2024/01/27 02:12:02;;;;;;;9.20;2.67;;;;;;;;;;5089247;28;20040;-28
2024/01/27 02:14:30;;;;;;;9.73;2.75;;;;;;;;;;5092281;28;20027;-28
2024/01/27 02:16:57;;;;;;;9.30;2.60;;;;;;;;;;5092090;28;20462;-28
2024/01/27 02:19:25;;;;;;;8.18;3.05;;;;;;;;;;5092298;28;20028;-27
2024/01/27 02:21:52;;;;;;;12.68;2.85;;;;;;;;;;5089694;28;20028;-27
2024/01/27 02:24:19;;;;;;;9.82;2.55;;;;;;;;;;5089995;28;20028;-28
2024/01/27 02:26:45;;;;;;;10.65;2.67;;;;;;;;;;5092118;28;20077;-30
2024/01/27 02:29:12;;;;;;;7.47;2.33;;;;;;;;;;5092013;28;20101;-29
2024/01/27 02:31:39;;;;;;;7.50;2.20;;;;;;;;;;5091950;28;20052;-27
2024/01/27 02:34:10;;;;;;;12.45;3.13;;;;;;;;;;5088464;28;20168;-27
2024/01/27 02:36:37;;;;;;;12.80;2.88;;;;;;;;;;5090773;28;20037;-28
2024/01/27 02:39:04;;;;;;;9.93;2.50;;;;;;;;;;5091954;28;20047;-28
2024/01/27 02:41:35;;;;;;;7.20;2.53;;;;;;;;;;5091712;28;20024;-28
2024/01/27 02:44:02;;;;;;;10.05;2.58;;;;;;;;;;5091832;28;20119;-28
2024/01/27 02:46:29;;;;;;;8.63;2.60;;;;;;;;;;5087462;28;20031;-28
2024/01/27 02:48:56;;;;;;;7.63;2.17;;;;;;;;;;5091784;28;20028;-28
2024/01/27 02:51:23;;;;;;;7.82;2.60;;;;;;;;;;5091709;28;20042;-28
2024/01/27 02:53:50;;;;;;;6.65;1.88;;;;;;;;;;5091777;28;20024;-28
2024/01/27 02:56:19;;;;;;;11.07;2.38;;;;;;;;;;5091767;28;20081;-28
2024/01/27 02:58:46;;;;;;;11.95;2.38;;;;;;;;;;5087131;28;20024;-30
2024/01/27 03:01:14;;;;;;;10.45;2.38;;;;;;;;;;5091589;28;20024;-29
2024/01/27 03:03:41;;;;;;;6.28;2.25;;;;;;;;;;5091532;28;20052;-28
2024/01/27 03:06:08;;;;;;;9.40;2.10;;;;;;;;;;5091598;28;20020;-28
2024/01/27 03:08:35;;;;;;;9.80;2.30;;;;;;;;;;5090903;28;20035;-29
2024/01/27 03:11:03;;;;;;;9.35;2.63;;;;;;;;;;5087530;28;20553;-28
2024/01/27 03:13:30;;;;;;;6.15;2.20;;;;;;;;;;5091555;28;20079;-27
2024/01/27 03:15:57;;;;;;;10.90;2.42;;;;;;;;;;5091534;28;20523;-28
2024/01/27 03:18:25;;;;;;;6.43;1.85;;;;;;;;;;5095557;28;20035;-28
2024/01/27 03:20:52;;;;;;;8.43;2.25;;;;;;;;;;5093850;28;20039;-27
2024/01/27 03:23:19;;;;;;;9.20;2.10;;;;;;;;;;5092442;28;20036;-27
2024/01/27 03:25:46;;;;;;;9.27;2.03;;;;;;;;;;5095520;28;20119;-29
2024/01/27 03:28:13;;;;;;;6.20;1.75;;;;;;;;;;5095496;28;20035;-28
2024/01/27 03:30:40;;;;;;;11.65;2.40;;;;;;;;;;5095451;28;20056;-28
2024/01/27 03:33:10;;;;;;;13.50;2.33;;;;;;;;;;5093205;28;20803;-28
2024/01/27 03:35:37;;;;;;;9.18;2.03;;;;;;;;;;5094129;28;20059;-27
2024/01/27 03:38:04;;;;;;;8.93;1.92;;;;;;;;;;5095302;28;20028;-28
2024/01/27 03:40:31;;;;;;;9.07;2.13;;;;;;;;;;5095116;28;20051;-28
2024/01/27 03:42:58;;;;;;;11.93;2.00;;;;;;;;;;5095213;28;20024;-27
2024/01/27 03:45:25;;;;;;;8.15;2.05;;;;;;;;;;5091416;28;20103;-30
2024/01/27 03:47:53;;;;;;;11.75;2.90;;;;;;;;;;5094546;28;20028;-27
2024/01/27 03:50:20;;;;;;;9.80;1.85;;;;;;;;;;5095147;28;20028;-27
2024/01/27 03:52:47;;;;;;;7.32;2.10;;;;;;;;;;5094741;28;20024;-27
2024/01/27 03:55:14;;;;;;;6.70;1.98;;;;;;;;;;5094987;28;20485;-28
2024/01/27 03:57:41;;;;;;;8.18;2.13;;;;;;;;;;5090439;28;20513;-28
2024/01/27 04:00:08;;;;;;;7.13;1.92;;;;;;;;;;5094830;28;20032;-28
2024/01/27 04:02:35;;;;;;;6.57;1.88;;;;;;;;;;5094770;28;20040;-29
2024/01/27 04:05:02;;;;;;;5.65;1.90;;;;;;;;;;5094752;28;20035;-28
2024/01/27 04:07:29;;;;;;;11.30;2.22;;;;;;;;;;5094765;28;20517;-28
2024/01/27 04:09:56;;;;;;;11.60;2.08;;;;;;;;;;5090257;28;20016;-27
2024/01/27 04:12:23;;;;;;;9.20;1.95;;;;;;;;;;5094467;28;20063;-28
2024/01/27 04:14:50;;;;;;;7.00;1.80;;;;;;;;;;5094655;28;20039;-29
2024/01/27 04:17:16;;;;;;;7.50;2.00;;;;;;;;;;5094608;28;20023;-27
2024/01/27 04:19:43;;;;;;;9.52;1.88;;;;;;;;;;5093025;28;20035;-28
2024/01/27 04:22:10;;;;;;;10.13;1.83;;;;;;;;;;5091430;28;20398;-28
2024/01/27 04:24:37;;;;;;;8.80;2.00;;;;;;;;;;5094504;28;20027;-29
2024/01/27 04:27:04;;;;;;;7.70;2.05;;;;;;;;;;5093025;28;20648;-28
2024/01/27 04:29:31;;;;;;;9.88;1.55;;;;;;;;;;5093114;28;20029;-28
2024/01/27 04:31:58;;;;;;;9.60;1.40;;;;;;;;;;5090712;28;20044;-27
2024/01/27 04:34:25;;;;;;;9.07;1.73;;;;;;;;;;5093011;28;20051;-28
2024/01/27 04:36:52;;;;;;;6.32;1.60;;;;;;;;;;5094118;28;20031;-28
2024/01/27 04:39:19;;;;;;;9.18;1.85;;;;;;;;;;5094251;28;20103;-29
2024/01/27 04:41:46;;;;;;;7.07;1.80;;;;;;;;;;5093898;28;20121;-28
2024/01/27 04:44:13;;;;;;;9.13;1.88;;;;;;;;;;5083602;22;20956;-30
2024/01/27 04:46:40;;;;;;;5.72;1.52;;;;;;;;;;5072676;28;20024;-27
2024/01/27 04:49:07;;;;;;;8.73;1.77;;;;;;;;;;5073835;28;20110;-27
2024/01/27 04:51:34;;;;;;;10.23;1.80;;;;;;;;;;5073747;28;20028;-27
2024/01/27 04:54:01;;;;;;;7.15;1.85;;;;;;;;;;5073571;28;20029;-27
2024/01/27 04:56:28;;;;;;;7.80;2.03;;;;;;;;;;5069124;28;20110;-27
2024/01/27 04:58:55;;;;;;;8.07;1.65;;;;;;;;;;5073515;28;20037;-27
2024/01/27 05:01:22;;;;;;;9.38;1.88;;;;;;;;;;5073484;28;20470;-27
2024/01/27 05:03:49;;;;;;;9.80;1.67;;;;;;;;;;5073423;28;20028;-27
2024/01/27 05:06:17;;;;;;;7.68;1.40;;;;;;;;;;5073454;28;20029;-27
2024/01/27 05:08:45;;;;;;;8.00;1.75;;;;;;;;;;5068764;28;20021;-27
2024/01/27 05:11:12;;;;;;;6.15;1.70;;;;;;;;;;5073193;28;20056;-27
2024/01/27 05:13:41;;;;;;;6.88;1.90;;;;;;;;;;5073028;28;20037;-27
2024/01/27 05:16:08;;;;;;;5.57;1.42;;;;;;;;;;5073316;28;20025;-27
2024/01/27 05:18:35;;;;;;;4.80;1.50;;;;;;;;;;5072092;28;20056;-27
2024/01/27 05:21:02;;;;;;;4.47;1.40;;;;;;;;;;5069808;28;20024;-27
2024/01/27 05:23:28;;;;;;;8.32;1.48;;;;;;;;;;5072969;28;20043;-27
2024/01/27 05:25:55;;;;;;;10.15;1.63;;;;;;;;;;5073042;28;20033;-27
2024/01/27 05:28:22;;;;;;;7.82;1.63;;;;;;;;;;5072984;28;20028;-27
2024/01/27 05:30:49;;;;;;;9.05;2.10;;;;;;;;;;5071296;28;20021;-27
2024/01/27 05:33:16;;;;;;;6.53;1.45;;;;;;;;;;5069876;28;20745;-27
2024/01/27 05:35:43;;;;;;;4.80;1.40;;;;;;;;;;5072892;28;20025;-27
2024/01/27 05:38:10;;;;;;;5.28;1.55;;;;;;;;;;5073006;28;20513;-27
2024/01/27 05:40:37;;;;;;;4.82;1.65;;;;;;;;;;5072438;28;20024;-27
2024/01/27 05:43:04;;;;;;;7.25;1.90;;;;;;;;;;5070157;28;20055;-27
2024/01/27 05:45:31;;;;;;;4.47;1.55;;;;;;;;;;5070726;28;20067;-27
2024/01/27 05:47:58;;;;;;;6.70;1.70;;;;;;;;;;5072708;28;20017;-27
2024/01/27 05:50:25;;;;;;;6.40;1.48;;;;;;;;;;5072487;28;20124;-27
2024/01/27 05:52:52;;;;;;;6.25;1.50;;;;;;;;;;5071028;28;20461;-27
2024/01/27 05:55:19;;;;;;;4.50;1.20;;;;;;;;;;5068422;28;20064;-27
2024/01/27 05:57:46;;;;;;;6.93;1.63;;;;;;;;;;5071978;28;20569;-27
2024/01/27 06:00:14;;;;;;;5.93;1.67;;;;;;;;;;5072440;28;20039;-27
2024/01/27 06:02:41;;;;;;;5.72;1.70;;;;;;;;;;5070397;28;20021;-27
2024/01/27 06:05:09;;;;;;;5.70;1.33;;;;;;;;;;5072292;28;20044;-27
2024/01/27 06:07:39;;;;;;;5.63;1.55;;;;;;;;;;5067623;28;20050;-27
2024/01/27 06:10:08;;;;;;;5.68;1.30;;;;;;;;;;5072157;28;20035;-27
2024/01/27 06:12:35;;;;;;;9.32;1.77;;;;;;;;;;5072139;28;20089;-27
2024/01/27 06:15:03;;;;;;;5.82;1.50;;;;;;;;;;5072057;28;20486;-27
2024/01/27 06:17:29;;;;;;;8.23;1.63;;;;;;;;;;5071688;28;20098;-27
2024/01/27 06:19:56;;;;;;;6.47;1.30;;;;;;;;;;5067631;28;20097;-27
2024/01/27 06:22:23;;;;;;;4.97;1.48;;;;;;;;;;5072044;28;20078;-27
2024/01/27 06:24:51;;;;;;;6.50;1.45;;;;;;;;;;5071960;28;20538;-27
2024/01/27 06:27:18;;;;;;;5.93;1.40;;;;;;;;;;5071846;28;20157;-27
2024/01/27 06:29:45;;;;;;;5.97;1.35;;;;;;;;;;5070499;28;20027;-27
2024/01/27 06:32:12;;;;;;;6.28;1.30;;;;;;;;;;5068782;28;20414;-27
2024/01/27 06:34:39;;;;;;;8.88;1.38;;;;;;;;;;5071868;28;20016;-27
2024/01/27 06:37:06;;;;;;;5.60;1.60;;;;;;;;;;5071927;28;20020;-27
2024/01/27 06:39:33;;;;;;;6.68;1.63;;;;;;;;;;5072090;28;20028;-27
2024/01/27 06:42:00;;;;;;;7.38;1.58;;;;;;;;;;5069396;28;20089;-27
2024/01/27 06:44:27;;;;;;;6.97;1.58;;;;;;;;;;5068988;28;20044;-27
2024/01/27 06:46:53;;;;;;;7.55;1.30;;;;;;;;;;5071816;28;20033;-27
2024/01/27 06:49:20;;;;;;;4.25;0.95;;;;;;;;;;5071743;28;20389;-27
2024/01/27 06:51:47;;;;;;;3.78;1.40;;;;;;;;;;5070907;28;20122;-27
2024/01/27 06:54:14;;;;;;;6.03;1.33;;;;;;;;;;5068432;28;20032;-27
2024/01/27 06:56:41;;;;;;;8.50;1.40;;;;;;;;;;5070125;28;20020;-27
2024/01/27 06:59:08;;;;;;;5.45;1.35;;;;;;;;;;5071644;28;20477;-27
2024/01/27 07:01:35;;;;;;;4.97;1.27;;;;;;;;;;5071591;28;20032;-27
2024/01/27 07:04:02;;;;;;;3.40;1.25;;;;;;;;;;5071542;28;20048;-27
2024/01/27 07:06:29;;;;;;;7.65;0.88;;;;;;;;;;5066469;28;20108;-27
2024/01/27 07:08:56;;;;;;;5.88;1.27;;;;;;;;;;5070715;28;20045;-27
2024/01/27 07:11:23;;;;;;;7.05;1.77;;;;;;;;;;5071497;28;20436;-27
2024/01/27 07:13:50;;;;;;;6.25;1.40;;;;;;;;;;5069965;28;20071;-27
2024/01/27 07:16:17;;;;;;;8.38;1.27;;;;;;;;;;5071425;28;20020;-27
2024/01/27 07:18:44;;;;;;;6.85;1.33;;;;;;;;;;5066715;28;20051;-27
2024/01/27 07:21:16;;;;;;;5.30;1.50;;;;;;;;;;5071621;28;20516;-27
2024/01/27 07:23:43;;;;;;;;;;;;;;;;;;5071675;28;20097;-27
2024/01/27 07:26:13;;;;;;;7.00;1.42;;;;;;;;;;5071350;28;19912;-27
2024/01/27 07:28:40;;;;;;;4.85;1.27;;;;;;;;;;5071430;28;20107;-27
2024/01/27 07:31:08;;;;;;;5.05;1.20;;;;;;;;;;5066645;28;20036;-27
2024/01/27 07:33:35;;;;;;;9.77;1.42;;;;;;;;;;5071112;28;20076;-27
2024/01/27 07:36:02;;;;;;;6.28;1.20;;;;;;;;;;5071213;28;20033;-27
2024/01/27 07:38:29;;;;;;;5.80;1.23;;;;;;;;;;5071147;28;20107;-27
2024/01/27 07:40:56;;;;;;;4.20;1.30;;;;;;;;;;5069986;28;20102;-27
2024/01/27 07:43:24;;;;;;;5.40;1.20;;;;;;;;;;5067756;28;20029;-27
2024/01/27 07:45:52;;;;;;;5.85;1.30;;;;;;;;;;5071207;28;20051;-27
2024/01/27 07:48:19;;;;;;;6.55;1.52;;;;;;;;;;5071138;28;20044;-27
2024/01/27 07:50:48;;;;;;;5.10;1.10;;;;;;;;;;5071159;28;20028;-27
2024/01/27 07:53:16;;;;;;;4.43;1.17;;;;;;;;;;5068827;28;20041;-27
2024/01/27 07:55:42;;;;;;;5.00;1.27;;;;;;;;;;5068656;28;20035;-27
2024/01/27 07:58:09;;;;;;;6.15;1.60;;;;;;;;;;5071143;28;20021;-27
2024/01/27 08:00:36;;;;;;;4.55;1.10;;;;;;;;;;5071097;28;20082;-27
2024/01/27 08:03:03;;;;;;;6.72;1.30;;;;;;;;;;5072331;28;20036;-27
2024/01/27 08:05:30;;;;;;;3.88;1.02;;;;;;;;;;5071859;28;20029;-27
2024/01/27 08:07:57;;;;;;;3.30;1.10;;;;;;;;;;5072535;28;20036;-27
2024/01/27 08:10:24;;;;;;;4.40;1.05;;;;;;;;;;5074822;28;20432;-27
2024/01/27 08:12:51;;;;;;;5.15;1.27;;;;;;;;;;5074315;28;20185;-27
2024/01/27 08:15:18;;;;;;;5.85;1.17;;;;;;;;;;5074360;28;20109;-27
2024/01/27 08:17:45;;;;;;;5.95;1.20;;;;;;;;;;5071107;28;20587;-27
2024/01/27 08:20:12;;;;;;;5.78;1.00;;;;;;;;;;5073443;28;20107;-27
2024/01/27 08:22:39;;;;;;;3.22;1.20;;;;;;;;;;5074407;28;20025;-27
2024/01/27 08:25:06;;;;;;;2.67;1.00;;;;;;;;;;5074365;28;20025;-27
2024/01/27 08:27:33;;;;;;;3.40;1.10;;;;;;;;;;5072758;28;20055;-27
2024/01/27 08:30:00;;;;;;;3.22;1.00;;;;;;;;;;5069763;28;20032;-27
2024/01/27 08:32:27;;;;;;;4.68;1.10;;;;;;;;;;5072550;28;20025;-27
2024/01/27 08:34:54;;;;;;;5.90;1.02;;;;;;;;;;5074109;28;20051;-27
2024/01/27 08:37:21;;;;;;;3.58;1.30;;;;;;;;;;5074060;28;20028;-27
2024/01/27 08:39:50;;;;;;;5.35;1.08;;;;;;;;;;5073926;28;20040;-27
2024/01/27 08:42:17;;;;;;;4.32;1.05;;;;;;;;;;5069393;28;20725;-27
2024/01/27 08:44:44;;;;;;;4.00;1.08;;;;;;;;;;5073687;28;20037;-27
2024/01/27 08:47:11;;;;;;;2.60;0.80;;;;;;;;;;5073836;28;20060;-27
2024/01/27 08:49:38;;;;;;;5.15;1.00;;;;;;;;;;5073999;28;20808;-27
2024/01/27 08:52:06;;;;;;;3.53;1.02;;;;;;;;;;5073756;28;20127;-27
2024/01/27 08:54:33;;;;;;;4.72;1.10;;;;;;;;;;5069294;28;20115;-26
2024/01/27 08:57:00;;;;;;;4.35;1.23;;;;;;;;;;5073734;28;20023;-26
2024/01/27 08:59:26;;;;;;;3.67;1.10;;;;;;;;;;5073573;28;20074;-26
2024/01/27 09:01:53;;;;;;;6.97;1.30;;;;;;;;;;5073710;28;20020;-26
2024/01/27 09:04:20;;;;;;;6.05;1.25;;;;;;;;;;5072831;28;20032;-26
2024/01/27 09:06:47;;;;;;;5.38;1.42;;;;;;;;;;5069678;28;20040;-26
2024/01/27 09:09:14;;;;;;;3.35;1.05;;;;;;;;;;5073483;28;20029;-27
2024/01/27 09:11:41;;;;;;;5.30;1.20;;;;;;;;;;5073340;28;20395;-26
2024/01/27 09:14:08;;;;;;;3.88;1.02;;;;;;;;;;5072511;28;20099;-26
2024/01/27 09:16:35;;;;;;;5.60;1.30;;;;;;;;;;5072109;28;20031;-26
2024/01/27 09:19:02;;;;;;;5.65;1.10;;;;;;;;;;5070023;28;20024;-26
2024/01/27 09:21:30;;;;;;;2.90;1.20;;;;;;;;;;5073156;28;20074;-26
2024/01/27 09:23:57;;;;;;;5.00;1.55;;;;;;;;;;5073006;28;20043;-26
2024/01/27 09:26:24;;;;;;;4.18;1.20;;;;;;;;;;5073121;28;20025;-26
2024/01/27 09:28:54;;;;;;;4.22;1.05;;;;;;;;;;5070567;28;20032;-26
2024/01/27 09:31:22;;;;;;;4.90;1.20;;;;;;;;;;5071038;28;20073;-26
2024/01/27 09:33:57;;;;;;;3.35;1.05;;;;;;;;;;5072880;28;20084;-26
2024/01/27 09:36:25;;;;;;;6.45;1.33;;;;;;;;;;5072966;28;20035;-26
2024/01/27 09:38:53;;;;;;;3.53;1.17;;;;;;;;;;5072798;28;20039;-26
2024/01/27 09:41:20;;;;;;;4.00;0.93;;;;;;;;;;5068621;28;20040;-26
2024/01/27 09:43:47;;;;;;;4.05;1.10;;;;;;;;;;5072012;28;20068;-26
2024/01/27 09:46:15;;;;;;;5.10;1.40;;;;;;;;;;5072774;28;20052;-26
2024/01/27 09:48:43;;;;;;;4.13;1.20;;;;;;;;;;5072721;28;20049;-26
2024/01/27 09:51:10;;;;;;;3.83;1.40;;;;;;;;;;5072474;28;20032;-26
2024/01/27 09:53:38;;;;;;;5.10;1.38;;;;;;;;;;5067653;28;20044;-26
2024/01/27 09:56:05;;;;;;;5.95;1.20;;;;;;;;;;5072594;28;20501;-26
2024/01/27 09:58:32;;;;;;;5.35;1.00;;;;;;;;;;5072514;28;20031;-26
2024/01/27 10:01:00;;;;;;;4.32;1.23;;;;;;;;;;5072336;28;20042;-26
2024/01/27 10:03:28;;;;;;;3.65;1.42;;;;;;;;;;5072107;28;20036;-26
2024/01/27 10:05:56;;;;;;;3.80;1.10;;;;;;;;;;5068157;28;20032;-26
2024/01/27 10:08:23;;;;;;;3.03;1.10;;;;;;;;;;5072428;28;20025;-26
2024/01/27 10:10:57;;;;;;;4.55;1.30;;;;;;;;;;5072393;28;20513;-26
2024/01/27 10:13:27;;;;;;;7.85;1.13;;;;;;;;;;5071929;28;20033;-26
2024/01/27 10:16:12;;;;;;;4.68;1.10;;;;;;;;;;5069602;28;20846;-26
2024/01/27 10:18:38;;;;;;;6.35;1.40;;;;;;;;;;5070939;28;20075;-26
2024/01/27 10:21:20;;;;;;;5.88;1.35;;;;;;;;;;5072142;28;20032;-26
2024/01/27 10:23:47;;;;;;;4.23;1.17;;;;;;;;;;5071886;28;20691;-26
2024/01/27 10:26:14;;;;;;;6.68;1.30;;;;;;;;;;5071238;28;20032;-26
2024/01/27 10:28:42;;;;;;;7.32;1.67;;;;;;;;;;5067598;28;20020;-26
2024/01/27 10:31:09;;;;;;;9.10;1.40;;;;;;;;;;5071784;28;20059;-26
2024/01/27 10:33:36;;;;;;;7.22;1.52;;;;;;;;;;5071660;28;20036;-26
2024/01/27 10:36:03;;;;;;;6.70;1.40;;;;;;;;;;5071920;28;20020;-26
2024/01/27 10:38:40;;;;;;;4.07;1.20;;;;;;;;;;5071278;28;20033;-27
2024/01/27 10:41:10;;;;;;;6.13;1.30;;;;;;;;;;5068468;28;20031;-26
2024/01/27 10:43:38;;;;;;;4.22;1.40;;;;;;;;;;5071344;28;20036;-26
2024/01/27 10:46:06;;;;;;;8.20;1.70;;;;;;;;;;5071830;28;20078;-26
2024/01/27 10:48:36;;;;;;;5.82;1.40;;;;;;;;;;5071826;28;20116;-26
2024/01/27 10:51:11;;;;;;;7.63;1.60;;;;;;;;;;5068384;28;20028;-26
2024/01/27 10:53:39;;;;;;;4.65;1.23;;;;;;;;;;5070837;28;20371;-26
2024/01/27 10:56:09;;;;;;;4.60;1.70;;;;;;;;;;5071900;28;20048;-26
2024/01/27 10:58:42;;;;;;;6.25;1.25;;;;;;;;;;5071510;28;20406;-26
2024/01/27 11:01:10;;;;;;;4.47;1.38;;;;;;;;;;5071675;28;20039;-26
2024/01/27 11:03:41;;;;;;;5.78;1.08;;;;;;;;;;5066948;28;20135;-26
2024/01/27 11:06:08;;;;;;;5.80;1.25;;;;;;;;;;5071650;28;20074;-26
2024/01/27 11:08:35;;;;;;;5.72;1.50;;;;;;;;;;5071607;28;20607;-26
2024/01/27 11:11:02;;;;;;;3.72;1.15;;;;;;;;;;5071588;28;20025;-26
2024/01/27 11:13:30;;;;;;;3.90;1.13;;;;;;;;;;5070915;28;20036;-26
2024/01/27 11:16:00;;;;;;;6.55;1.42;;;;;;;;;;5067761;28;20036;-26
2024/01/27 11:18:27;;;;;;;3.50;1.10;;;;;;;;;;5071427;28;20028;-26
2024/01/27 11:20:55;;;;;;;5.57;1.42;;;;;;;;;;5071415;28;20116;-26
2024/01/27 11:23:32;;;;;;;3.78;1.15;;;;;;;;;;5071308;28;20101;-26
2024/01/27 11:26:08;;;;;;;6.18;1.50;;;;;;;;;;5069535;28;20035;-26
2024/01/27 11:28:36;;;;;;;5.22;1.25;;;;;;;;;;5069144;28;20286;-26
2024/01/27 11:31:06;;;;;;;6.57;1.90;;;;;;;;;;5071302;28;20059;-26
2024/01/27 11:33:33;;;;;;;7.38;1.42;;;;;;;;;;5071025;28;20441;-26
2024/01/27 11:36:04;;;;;;;6.40;1.40;;;;;;;;;;5071172;28;20454;-26
2024/01/27 11:38:32;;;;;;;7.03;1.50;;;;;;;;;;5070297;28;20402;-26
2024/01/27 11:41:01;;;;;;;8.18;1.42;;;;;;;;;;5073974;28;20086;-26
2024/01/27 11:43:28;;;;;;;5.78;1.60;;;;;;;;;;5074759;28;20032;-26
2024/01/27 11:46:02;;;;;;;8.15;1.95;;;;;;;;;;5075062;28;20116;-26
2024/01/27 11:48:29;;;;;;;6.47;1.50;;;;;;;;;;5074973;28;20037;-26
2024/01/27 11:51:11;;;;;;;8.43;1.60;;;;;;;;;;5068948;28;20040;-26
2024/01/27 11:53:38;;;;;;;;;;;;;;;;;;5075049;28;20109;-26
2024/01/27 11:56:05;;;;;;;5.97;1.60;;;;;;;;;;5074901;28;19908;-26
2024/01/27 11:58:33;;;;;;;6.40;1.45;;;;;;;;;;5074870;28;20430;-26
2024/01/27 12:01:00;;;;;;;10.32;1.65;;;;;;;;;;5074188;28;20429;-26
2024/01/27 12:03:28;;;;;;;6.25;1.23;;;;;;;;;;5070461;28;20044;-26
2024/01/27 12:05:56;;;;;;;9.85;1.52;;;;;;;;;;5074488;28;20033;-26
2024/01/27 12:08:23;;;;;;;10.73;2.10;;;;;;;;;;5074636;28;20025;-26
2024/01/27 12:10:50;;;;;;;14.57;2.35;;;;;;;;;;5074626;28;20027;-26
2024/01/27 12:13:17;;;;;;;14.55;1.60;;;;;;;;;;5073148;28;20128;-26
2024/01/27 12:15:44;;;;;;;10.57;2.35;;;;;;;;;;5071302;28;20035;-26
2024/01/27 12:18:12;;;;;;;9.10;1.75;;;;;;;;;;5074460;28;20082;-26
2024/01/27 12:20:38;;;;;;;12.20;1.80;;;;;;;;;;5074402;28;20037;-26
2024/01/27 12:23:06;;;;;;;12.23;2.40;;;;;;;;;;5074282;28;20044;-26
2024/01/27 12:25:33;;;;;;;9.32;1.63;;;;;;;;;;5071447;28;20581;-26
2024/01/27 12:28:07;;;;;;;13.45;1.83;;;;;;;;;;5072830;28;20025;-26
2024/01/27 12:30:34;;;;;;;14.90;2.17;;;;;;;;;;5074140;28;20048;-26
2024/01/27 12:33:02;;;;;;;13.50;1.77;;;;;;;;;;5072692;28;20101;-26
2024/01/27 12:35:29;;;;;;;14.75;1.88;;;;;;;;;;5074094;28;20026;-26
2024/01/27 12:37:57;;;;;;;16.33;2.13;;;;;;;;;;5070194;28;20028;-26
2024/01/27 12:40:24;;;;;;;12.35;2.03;;;;;;;;;;5073569;28;20020;-26
2024/01/27 12:42:51;;;;;;;16.58;2.28;;;;;;;;;;5073936;28;20029;-26
2024/01/27 12:45:18;;;;;;;12.95;2.20;;;;;;;;;;5073624;28;20040;-26
2024/01/27 12:47:45;;;;;;;15.77;1.88;;;;;;;;;;5073147;28;20033;-26
2024/01/27 12:50:13;;;;;;;15.93;2.13;;;;;;;;;;5068382;28;20029;-26
2024/01/27 12:52:40;;;;;;;17.02;1.67;;;;;;;;;;5073681;28;20035;-26
2024/01/27 12:55:07;;;;;;;18.75;2.47;;;;;;;;;;5073812;28;20094;-26
2024/01/27 12:57:34;;;;;;;12.48;1.83;;;;;;;;;;5073703;28;20036;-26
2024/01/27 13:00:04;;;;;;;16.50;2.47;;;;;;;;;;5073731;28;20382;-26
2024/01/27 13:02:31;;;;;;;13.40;2.05;;;;;;;;;;5068848;28;20028;-26
2024/01/27 13:04:58;;;;;;;13.60;1.85;;;;;;;;;;5072121;28;20071;-26
2024/01/27 13:07:25;;;;;;;16.05;2.03;;;;;;;;;;5073520;28;20021;-26
2024/01/27 13:09:52;;;;;;;19.80;2.72;;;;;;;;;;5073555;28;20024;-26
2024/01/27 13:12:19;;;;;;;13.32;2.08;;;;;;;;;;5072752;28;20108;-26
2024/01/27 13:14:46;;;;;;;20.23;2.17;;;;;;;;;;5069446;28;20087;-26
2024/01/27 13:17:14;;;;;;;21.42;2.15;;;;;;;;;;5073276;28;20029;-26
2024/01/27 13:19:41;;;;;;;23.00;2.67;;;;;;;;;;5073166;28;20094;-26
2024/01/27 13:22:08;;;;;;;30.45;3.22;;;;;;;;;;5073312;28;20046;-26
2024/01/27 13:24:35;;;;;;;26.00;3.35;;;;;;;;;;5071436;28;20033;-26
2024/01/27 13:27:03;;;;;;;34.20;3.30;;;;;;;;;;5070250;28;20489;-26
2024/01/27 13:29:30;;;;;;;23.80;2.28;;;;;;;;;;5073005;28;20035;-26
2024/01/27 13:31:58;;;;;;;21.05;2.70;;;;;;;;;;5073019;28;20379;-26
2024/01/27 13:34:25;;;;;;;25.23;2.65;;;;;;;;;;5072754;28;20044;-26
2024/01/27 13:36:52;;;;;;;25.02;3.17;;;;;;;;;;5070338;28;20033;-27
2024/01/27 13:39:19;;;;;;;17.25;2.38;;;;;;;;;;5070886;28;20031;-26
2024/01/27 13:41:46;;;;;;;21.65;2.95;;;;;;;;;;5072824;28;20036;-26
2024/01/27 13:44:13;;;;;;;16.20;3.03;;;;;;;;;;5072560;28;20132;-26
2024/01/27 13:46:40;;;;;;;18.15;2.78;;;;;;;;;;5072643;28;20025;-26
2024/01/27 13:49:07;;;;;;;15.45;2.50;;;;;;;;;;5069229;28;20029;-26
2024/01/27 13:51:34;;;;;;;17.30;2.50;;;;;;;;;;5071720;28;20028;-26
2024/01/27 13:54:01;;;;;;;11.23;2.10;;;;;;;;;;5072409;28;20028;-26
2024/01/27 13:56:32;;;;;;;15.75;2.20;;;;;;;;;;5072613;28;20436;-26
2024/01/27 13:58:59;;;;;;;12.60;2.50;;;;;;;;;;5072507;28;20033;-26
2024/01/27 14:01:26;;;;;;;15.05;1.88;;;;;;;;;;5067815;28;20686;-26
2024/01/27 14:03:53;;;;;;;22.33;2.60;;;;;;;;;;5072148;28;20516;-26
2024/01/27 14:06:20;;;;;;;15.80;2.25;;;;;;;;;;5072293;28;20032;-26
2024/01/27 14:08:47;;;;;;;18.88;2.28;;;;;;;;;;5072366;28;20040;-26
2024/01/27 14:11:15;;;;;;;11.55;1.85;;;;;;;;;;5072320;28;20492;-26
2024/01/27 14:13:43;;;;;;;14.07;2.10;;;;;;;;;;5067661;28;20481;-26
2024/01/27 14:16:10;;;;;;;11.00;1.75;;;;;;;;;;5072160;28;20135;-26
2024/01/27 14:18:37;;;;;;;11.63;2.17;;;;;;;;;;5072155;28;20165;-26
2024/01/27 14:21:04;;;;;;;20.15;2.70;;;;;;;;;;5072098;28;20036;-26
2024/01/27 14:23:31;;;;;;;9.65;2.15;;;;;;;;;;5071690;28;20030;-26
2024/01/27 14:25:58;;;;;;;9.55;1.90;;;;;;;;;;5067610;28;20033;-26
2024/01/27 14:28:25;;;;;;;13.05;2.40;;;;;;;;;;5072104;28;20497;-26
2024/01/27 14:30:52;;;;;;;8.57;1.95;;;;;;;;;;5071934;28;20436;-26
2024/01/27 14:33:20;;;;;;;9.05;1.98;;;;;;;;;;5071667;28;20039;-26
2024/01/27 14:35:48;;;;;;;11.88;2.08;;;;;;;;;;5068880;28;20456;-26
2024/01/27 14:38:15;;;;;;;11.95;2.25;;;;;;;;;;5069415;28;20024;-26
2024/01/27 14:40:42;;;;;;;11.02;1.95;;;;;;;;;;5071836;28;20024;-26